Time;durP1;ratioP1;P1;durP2;ratioP2;P2;SDS_P1;SDS_P2;PMS_P1;PMS_P2;Temp;Humidity;BMP_temperature;BMP_pressure;BME280_temperature;BME280_humidity;BME280_pressure;Samples;Min_cycle;Max_cycle;Signal;HPM_P1;HPM_P2
2021/01/09 00:00:40;;;;;;;16.70;10.15;;;3.40;99.90;;;;;;5058647;28;20202;-83
2021/01/09 00:03:07;;;;;;;15.40;10.02;;;3.60;99.90;;;;;;5056530;28;20344;-82
2021/01/09 00:05:33;;;;;;;15.15;9.52;;;3.70;99.90;;;;;;5055551;28;20360;-82
2021/01/09 00:08:00;;;;;;;14.45;9.15;;;3.80;99.90;;;;;;5069585;28;20274;-80
2021/01/09 00:10:27;;;;;;;14.20;9.45;;;3.60;99.90;;;;;;5074238;28;20198;-81
2021/01/09 00:12:54;;;;;;;16.13;10.05;;;3.90;99.90;;;;;;5070482;28;20202;-82
2021/01/09 00:15:20;;;;;;;16.13;9.10;;;3.50;99.90;;;;;;5070842;28;20257;-82
2021/01/09 00:17:47;;;;;;;17.42;10.25;;;3.80;99.90;;;;;;5063173;28;20237;-82
2021/01/09 00:20:15;;;;;;;15.57;10.15;;;3.70;99.90;;;;;;5062800;28;20672;-81
2021/01/09 00:22:43;;;;;;;18.17;11.30;;;3.90;99.90;;;;;;5108933;22;20234;-85
2021/01/09 00:25:11;;;;;;;17.58;10.15;;;4.00;99.90;;;;;;5097921;28;20209;-84
2021/01/09 00:27:39;;;;;;;15.65;9.88;;;3.70;99.90;;;;;;5105639;28;20205;-82
2021/01/09 00:30:07;;;;;;;15.68;9.93;;;3.90;99.90;;;;;;5104127;28;20275;-86
2021/01/09 00:32:34;;;;;;;16.35;10.60;;;3.60;99.90;;;;;;5093472;28;20253;-84
2021/01/09 00:35:01;;;;;;;16.42;10.82;;;3.80;99.90;;;;;;5057221;28;20210;-83
2021/01/09 00:37:28;;;;;;;13.48;8.95;;;3.80;99.90;;;;;;5068791;28;20594;-85
2021/01/09 00:39:55;;;;;;;15.18;9.18;;;3.90;99.90;;;;;;5057110;28;20806;-84
2021/01/09 00:42:22;;;;;;;13.70;9.93;;;4.00;99.90;;;;;;5060056;28;20226;-84
2021/01/09 00:44:49;;;;;;;18.98;9.95;;;4.00;99.90;;;;;;5063809;28;20620;-84
2021/01/09 00:47:16;;;;;;;14.90;8.73;;;3.80;99.90;;;;;;5083240;28;20806;-84
2021/01/09 00:49:42;;;;;;;15.23;10.77;;;3.80;99.90;;;;;;5076853;28;20198;-82
2021/01/09 00:52:09;;;;;;;18.75;10.05;;;3.80;99.90;;;;;;5078021;28;20632;-84
2021/01/09 00:54:36;;;;;;;16.17;10.02;;;3.70;99.90;;;;;;5076942;28;20601;-84
2021/01/09 00:57:04;;;;;;;13.93;9.85;;;3.80;99.90;;;;;;5079764;28;20205;-85
2021/01/09 00:59:30;;;;;;;13.98;9.98;;;3.50;99.90;;;;;;5063800;28;20206;-85
2021/01/09 01:01:58;;;;;;;16.45;11.77;;;3.70;99.90;;;;;;5076891;28;20222;-84
2021/01/09 01:04:24;;;;;;;16.45;9.50;;;3.70;99.90;;;;;;5080401;28;20202;-82
2021/01/09 01:06:51;;;;;;;19.20;10.95;;;3.80;99.90;;;;;;5081976;28;20284;-83
2021/01/09 01:09:18;;;;;;;17.48;10.20;;;4.10;99.90;;;;;;5082000;28;20211;-82
2021/01/09 01:11:45;;;;;;;17.58;10.57;;;3.90;99.90;;;;;;5070374;28;20229;-84
2021/01/09 01:14:11;;;;;;;14.60;9.85;;;4.00;99.90;;;;;;5081913;28;20194;-83
2021/01/09 01:16:43;;;;;;;14.88;9.90;;;3.70;99.90;;;;;;5078889;28;20214;-82
2021/01/09 01:19:12;;;;;;;15.70;10.68;;;4.10;99.90;;;;;;5073673;28;20224;-83
2021/01/09 01:21:38;;;;;;;14.02;8.75;;;4.10;99.90;;;;;;5089663;28;20233;-85
2021/01/09 01:24:06;;;;;;;21.48;10.60;;;4.20;99.90;;;;;;5088282;28;20213;-83
2021/01/09 01:26:32;;;;;;;14.15;8.70;;;4.00;99.90;;;;;;5060998;28;20565;-83
2021/01/09 01:29:00;;;;;;;14.68;9.32;;;4.30;99.90;;;;;;5061473;28;20230;-83
2021/01/09 01:31:27;;;;;;;12.93;8.60;;;4.10;99.90;;;;;;5080590;28;20270;-84
2021/01/09 01:33:54;;;;;;;16.90;10.70;;;4.30;99.90;;;;;;5079259;28;20198;-84
2021/01/09 01:36:21;;;;;;;17.75;9.90;;;4.20;99.90;;;;;;5078708;28;20194;-85
2021/01/09 01:38:48;;;;;;;16.02;10.45;;;4.00;99.90;;;;;;5080454;28;20230;-85
2021/01/09 01:41:14;;;;;;;15.95;9.43;;;4.20;99.90;;;;;;5080859;28;20570;-85
2021/01/09 01:43:41;;;;;;;18.58;10.65;;;3.90;99.90;;;;;;5083316;28;20213;-84
2021/01/09 01:46:09;;;;;;;15.85;9.32;;;4.00;99.90;;;;;;5076356;28;20198;-83
2021/01/09 01:48:37;;;;;;;17.95;10.65;;;4.20;99.90;;;;;;5082807;28;20340;-81
2021/01/09 01:51:04;;;;;;;16.60;10.38;;;3.80;99.90;;;;;;5065291;28;20198;-82
2021/01/09 01:53:32;;;;;;;14.63;9.82;;;3.80;99.90;;;;;;5080101;28;20300;-85
2021/01/09 01:55:59;;;;;;;15.40;9.95;;;4.10;99.90;;;;;;5080311;28;20201;-85
2021/01/09 01:58:26;;;;;;;13.68;8.85;;;4.10;99.90;;;;;;5105095;28;20208;-80
2021/01/09 02:00:53;;;;;;;16.50;10.80;;;4.10;99.90;;;;;;5088967;28;20203;-84
2021/01/09 02:03:20;;;;;;;16.25;9.88;;;4.10;99.90;;;;;;5067491;28;20226;-85
2021/01/09 02:05:58;;;;;;;14.93;9.40;;;4.20;99.90;;;;;;5060944;28;20211;-83
2021/01/09 02:08:29;;;;;;;18.45;10.15;;;4.10;99.90;;;;;;5074043;28;20202;-81
2021/01/09 02:11:00;;;;;;;15.52;10.48;;;4.30;99.90;;;;;;5083577;28;20278;-84
2021/01/09 02:13:33;;;;;;;17.80;11.82;;;3.80;99.90;;;;;;5072207;28;20267;-83
2021/01/09 02:16:00;;;;;;;20.70;10.93;;;3.70;99.90;;;;;;5062165;28;20198;-83
2021/01/09 02:18:28;;;;;;;17.33;10.70;;;3.70;99.90;;;;;;5079881;28;20225;-84
2021/01/09 02:21:05;;;;;;;19.67;12.05;;;3.80;99.90;;;;;;5082124;28;20723;-84
2021/01/09 02:23:33;;;;;;;16.27;9.77;;;3.80;99.90;;;;;;5077233;28;20193;-85
2021/01/09 02:26:00;;;;;;;18.92;11.55;;;3.80;99.90;;;;;;5099728;28;20292;-85
2021/01/09 02:28:27;;;;;;;17.63;11.20;;;3.60;99.90;;;;;;5093861;28;20197;-82
2021/01/09 02:30:55;;;;;;;15.82;9.70;;;3.80;99.90;;;;;;5078574;28;20228;-82
2021/01/09 02:33:23;;;;;;;17.95;11.35;;;3.70;99.90;;;;;;5079799;28;20740;-84
2021/01/09 02:35:53;;;;;;;17.95;11.88;;;3.60;99.90;;;;;;5075034;28;20206;-84
2021/01/09 02:38:19;;;;;;;20.60;12.38;;;3.50;99.90;;;;;;5083861;28;20590;-83
2021/01/09 02:40:47;;;;;;;17.85;13.02;;;3.40;99.90;;;;;;5078131;28;20279;-84
2021/01/09 02:43:14;;;;;;;18.27;11.48;;;3.50;99.90;;;;;;5084491;28;20229;-84
2021/01/09 02:45:41;;;;;;;19.45;10.18;;;3.30;99.90;;;;;;5068105;28;20226;-82
2021/01/09 02:48:09;;;;;;;17.70;11.18;;;3.50;99.90;;;;;;5065851;28;20289;-85
2021/01/09 02:50:35;;;;;;;17.92;10.50;;;3.80;99.90;;;;;;5060391;28;20210;-84
2021/01/09 02:53:02;;;;;;;19.67;12.48;;;3.80;99.90;;;;;;5065189;28;20217;-85
2021/01/09 02:55:29;;;;;;;21.65;13.23;;;4.00;99.90;;;;;;5080864;28;20216;-82
2021/01/09 02:57:56;;;;;;;20.40;12.30;;;3.90;99.90;;;;;;5065671;28;20227;-83
2021/01/09 03:00:23;;;;;;;19.77;10.30;;;3.80;99.90;;;;;;5063080;28;20578;-84
2021/01/09 03:02:50;;;;;;;20.60;11.52;;;4.00;99.90;;;;;;5073699;28;20225;-80
2021/01/09 03:05:16;;;;;;;21.67;12.88;;;4.00;99.90;;;;;;5085702;28;20202;-85
2021/01/09 03:07:43;;;;;;;20.38;13.07;;;3.60;99.90;;;;;;5079675;28;20201;-78
2021/01/09 03:10:10;;;;;;;20.73;13.45;;;3.60;99.90;;;;;;5078958;28;20206;-83
2021/01/09 03:12:37;;;;;;;18.40;11.68;;;3.80;99.90;;;;;;5081462;28;20251;-85
2021/01/09 03:15:05;;;;;;;17.73;11.57;;;3.90;99.90;;;;;;5062857;28;20273;-85
2021/01/09 03:17:32;;;;;;;18.92;11.68;;;3.90;99.90;;;;;;5078915;28;20232;-81
2021/01/09 03:19:58;;;;;;;24.73;14.82;;;3.80;99.90;;;;;;5093706;28;20194;-81
2021/01/09 03:22:25;;;;;;;20.60;12.52;;;3.90;99.90;;;;;;5092542;28;20240;-84
2021/01/09 03:24:51;;;;;;;18.40;11.00;;;3.80;99.90;;;;;;5098189;28;20201;-80
2021/01/09 03:27:18;;;;;;;20.67;13.23;;;3.80;99.90;;;;;;5094442;28;20231;-80
2021/01/09 03:29:45;;;;;;;18.98;12.93;;;3.90;99.90;;;;;;5073495;28;20230;-85
2021/01/09 03:32:12;;;;;;;17.40;11.13;;;4.00;99.90;;;;;;5063964;28;20223;-85
2021/01/09 03:34:39;;;;;;;22.23;12.82;;;3.90;99.90;;;;;;5079932;28;20252;-82
2021/01/09 03:37:05;;;;;;;18.55;11.95;;;3.80;99.90;;;;;;5080045;28;20210;-86
2021/01/09 03:39:32;;;;;;;26.00;14.57;;;3.70;99.90;;;;;;5086430;28;20226;-84
2021/01/09 03:41:58;;;;;;;21.30;13.10;;;3.90;99.90;;;;;;5077630;28;20237;-84
2021/01/09 03:44:25;;;;;;;22.52;13.90;;;3.70;99.90;;;;;;5060521;28;20229;-83
2021/01/09 03:46:52;;;;;;;22.50;13.20;;;4.00;99.90;;;;;;5073991;28;20700;-82
2021/01/09 03:49:19;;;;;;;21.65;12.10;;;4.10;99.90;;;;;;5087590;28;20198;-81
2021/01/09 03:51:46;;;;;;;22.23;14.05;;;4.00;99.90;;;;;;5087102;28;20249;-81
2021/01/09 03:54:13;;;;;;;22.65;13.80;;;4.00;99.90;;;;;;5101256;28;20357;-83
2021/01/09 03:56:39;;;;;;;22.95;13.45;;;4.00;99.90;;;;;;5093142;28;20293;-85
2021/01/09 03:59:06;;;;;;;21.65;14.27;;;3.80;99.90;;;;;;5084961;28;20236;-85
2021/01/09 04:01:32;;;;;;;21.25;11.82;;;3.80;99.90;;;;;;5103188;28;20717;-81
2021/01/09 04:03:59;;;;;;;23.08;13.73;;;3.80;99.90;;;;;;5058772;28;20206;-84
2021/01/09 04:06:26;;;;;;;21.35;12.50;;;3.80;99.90;;;;;;5058910;28;20202;-82
2021/01/09 04:08:53;;;;;;;24.63;15.13;;;3.70;99.90;;;;;;5067375;28;20202;-83
2021/01/09 04:11:20;;;;;;;23.70;15.27;;;3.60;99.90;;;;;;5078562;28;20225;-84
2021/01/09 04:13:47;;;;;;;25.80;15.60;;;3.70;99.90;;;;;;5059539;28;20198;-83
2021/01/09 04:16:13;;;;;;;22.70;13.75;;;3.70;99.90;;;;;;5073435;28;20213;-83
2021/01/09 04:18:40;;;;;;;24.48;15.25;;;3.70;99.90;;;;;;5060190;28;20257;-84
2021/01/09 04:21:06;;;;;;;25.60;15.10;;;3.90;99.90;;;;;;5071780;28;20247;-85
2021/01/09 04:23:35;;;;;;;23.30;13.82;;;3.80;99.90;;;;;;5077087;28;20206;-85
2021/01/09 04:26:01;;;;;;;20.75;13.00;;;3.80;99.90;;;;;;5077751;28;20205;-82
2021/01/09 04:28:28;;;;;;;24.02;13.25;;;3.70;99.90;;;;;;5076011;28;20212;-83
2021/01/09 04:30:54;;;;;;;21.23;13.63;;;3.90;99.90;;;;;;5060614;28;20210;-84
2021/01/09 04:33:21;;;;;;;20.20;13.73;;;3.80;99.90;;;;;;5071862;28;20245;-80
2021/01/09 04:35:47;;;;;;;24.67;14.68;;;3.90;99.90;;;;;;5074361;28;20203;-82
2021/01/09 04:38:15;;;;;;;18.70;12.05;;;3.90;99.90;;;;;;5057862;28;20222;-84
2021/01/09 04:40:43;;;;;;;22.95;13.30;;;3.90;99.90;;;;;;5060276;28;20209;-84
2021/01/09 04:43:09;;;;;;;23.58;14.07;;;4.00;99.90;;;;;;5064638;28;20935;-84
2021/01/09 04:45:36;;;;;;;20.85;13.82;;;3.60;99.90;;;;;;5067370;28;20202;-85
2021/01/09 04:48:04;;;;;;;20.98;14.20;;;3.70;99.90;;;;;;5063601;28;20894;-84
2021/01/09 04:50:33;;;;;;;24.42;14.18;;;3.60;99.90;;;;;;5077226;28;20672;-84
2021/01/09 04:53:00;;;;;;;21.95;13.38;;;3.80;99.90;;;;;;5076072;28;20234;-83
2021/01/09 04:55:28;;;;;;;24.20;16.85;;;3.70;99.90;;;;;;5063247;28;20206;-84
2021/01/09 04:58:00;;;;;;;26.05;15.82;;;3.50;99.90;;;;;;5079948;28;20650;-83
2021/01/09 05:00:27;;;;;;;22.65;14.40;;;3.60;99.90;;;;;;5064015;28;20211;-83
2021/01/09 05:02:53;;;;;;;23.63;14.45;;;3.70;99.90;;;;;;5068359;28;20222;-83
2021/01/09 05:05:20;;;;;;;25.67;15.68;;;3.60;99.90;;;;;;5068030;28;20219;-83
2021/01/09 05:07:47;;;;;;;20.92;13.63;;;3.80;99.90;;;;;;5068636;28;20256;-82
2021/01/09 05:10:13;;;;;;;29.23;16.08;;;3.80;99.90;;;;;;5103276;28;20205;-83
2021/01/09 05:12:41;;;;;;;22.92;14.77;;;3.90;99.90;;;;;;5097789;28;20226;-83
2021/01/09 05:15:09;;;;;;;25.95;15.88;;;3.90;99.90;;;;;;5083606;28;20198;-83
2021/01/09 05:17:38;;;;;;;24.58;15.85;;;3.80;99.90;;;;;;5086573;28;20209;-83
2021/01/09 05:20:06;;;;;;;24.08;13.90;;;3.80;99.90;;;;;;5086845;28;20206;-83
2021/01/09 05:22:35;;;;;;;24.40;13.82;;;3.70;99.90;;;;;;5086730;28;20234;-82
2021/01/09 05:25:02;;;;;;;26.02;16.55;;;3.70;99.90;;;;;;5069551;28;20202;-81
2021/01/09 05:27:28;;;;;;;26.25;15.18;;;3.50;99.90;;;;;;5064993;28;20210;-82
2021/01/09 05:29:55;;;;;;;27.90;17.40;;;3.30;99.90;;;;;;5078298;28;20399;-82
2021/01/09 05:32:24;;;;;;;26.45;15.20;;;3.60;99.90;;;;;;5088402;28;20206;-82
2021/01/09 05:34:52;;;;;;;27.58;15.73;;;3.30;99.90;;;;;;5095447;28;20202;-83
2021/01/09 05:37:22;;;;;;;25.60;16.50;;;3.60;99.90;;;;;;5099009;28;20211;-81
2021/01/09 05:39:57;;;;;;;29.30;16.35;;;3.60;99.90;;;;;;5092060;28;20210;-83
2021/01/09 05:42:24;;;;;;;28.88;17.10;;;3.50;99.90;;;;;;5087813;28;20277;-83
2021/01/09 05:44:53;;;;;;;32.75;18.05;;;3.30;99.90;;;;;;5088775;28;20225;-83
2021/01/09 05:47:22;;;;;;;28.38;16.65;;;3.30;99.90;;;;;;5083074;28;20203;-82
2021/01/09 05:49:51;;;;;;;28.85;17.33;;;3.30;99.90;;;;;;5065647;28;20378;-83
2021/01/09 05:52:18;;;;;;;27.52;16.73;;;3.60;99.90;;;;;;5083809;28;20714;-82
2021/01/09 05:54:45;;;;;;;29.48;18.10;;;3.70;99.90;;;;;;5086462;28;20213;-81
2021/01/09 05:57:16;;;;;;;28.20;16.17;;;3.80;99.90;;;;;;5085178;28;20208;-83
2021/01/09 05:59:44;;;;;;;29.60;17.80;;;3.60;99.90;;;;;;5085683;28;20258;-84
2021/01/09 06:02:11;;;;;;;32.13;18.80;;;3.70;99.90;;;;;;5087339;28;20293;-83
2021/01/09 06:04:43;;;;;;;31.13;17.33;;;3.70;99.90;;;;;;5085029;28;20213;-83
2021/01/09 06:07:16;;;;;;;33.35;18.35;;;3.60;99.90;;;;;;5071785;28;20203;-82
2021/01/09 06:09:47;;;;;;;26.25;17.70;;;3.60;99.90;;;;;;5074587;28;20212;-82
2021/01/09 06:12:14;;;;;;;32.03;18.67;;;3.50;99.90;;;;;;5084450;28;20230;-82
2021/01/09 06:14:44;;;;;;;28.73;16.73;;;3.50;99.90;;;;;;5084611;28;20289;-83
2021/01/09 06:17:13;;;;;;;29.58;16.15;;;3.60;99.90;;;;;;5084751;28;20206;-82
2021/01/09 06:19:40;;;;;;;28.95;18.48;;;3.50;99.90;;;;;;5085091;28;20221;-81
2021/01/09 06:22:07;;;;;;;29.17;17.38;;;3.20;99.90;;;;;;5085428;28;20225;-83
2021/01/09 06:24:35;;;;;;;31.70;19.65;;;3.20;99.90;;;;;;5084398;28;20195;-84
2021/01/09 06:27:02;;;;;;;30.98;18.13;;;3.30;99.90;;;;;;5073551;22;20227;-81
2021/01/09 06:29:29;;;;;;;32.30;18.48;;;3.40;99.90;;;;;;5050071;28;20194;-81
2021/01/09 06:31:58;;;;;;;31.15;19.02;;;3.50;99.90;;;;;;5053570;28;20313;-82
2021/01/09 06:34:25;;;;;;;31.10;18.08;;;3.50;99.90;;;;;;5055706;28;20209;-82
2021/01/09 06:36:57;;;;;;;32.72;19.35;;;3.50;99.90;;;;;;5043676;28;20223;-82
2021/01/09 06:39:25;;;;;;;29.92;18.13;;;3.30;99.90;;;;;;5037265;28;20222;-82
2021/01/09 06:41:55;;;;;;;25.13;14.65;;;3.70;99.90;;;;;;5036244;28;20272;-82
2021/01/09 06:44:24;;;;;;;33.63;18.23;;;3.60;99.90;;;;;;5036281;28;20714;-82
2021/01/09 06:46:51;;;;;;;32.00;17.67;;;3.20;99.90;;;;;;5036740;28;20266;-82
2021/01/09 06:49:19;;;;;;;31.65;16.95;;;3.50;99.90;;;;;;5029575;28;20221;-80
2021/01/09 06:51:54;;;;;;;33.35;19.30;;;3.50;99.90;;;;;;5037234;28;20208;-81
2021/01/09 06:54:23;;;;;;;31.52;18.85;;;3.50;99.90;;;;;;5032340;28;20203;-80
2021/01/09 06:56:51;;;;;;;32.28;19.70;;;3.60;99.90;;;;;;5019528;28;20287;-79
2021/01/09 06:59:32;;;;;;;39.30;19.67;;;3.30;99.90;;;;;;5023506;28;20215;-79
2021/01/09 07:02:19;;;;;;;36.72;19.33;;;3.40;99.90;;;;;;5036864;28;20452;-80
2021/01/09 07:05:00;;;;;;;32.58;20.13;;;3.20;99.90;;;;;;5035719;28;20229;-80
2021/01/09 07:07:31;;;;;;;31.45;17.67;;;3.40;99.90;;;;;;5036516;28;20231;-81
2021/01/09 07:10:05;;;;;;;35.70;21.30;;;3.50;99.90;;;;;;5026535;28;20192;-80
2021/01/09 07:12:33;;;;;;;35.05;19.80;;;3.40;99.90;;;;;;5016613;28;20231;-79
2021/01/09 07:15:07;;;;;;;31.48;17.23;;;3.30;99.90;;;;;;5020922;28;20222;-79
2021/01/09 07:17:36;;;;;;;29.25;17.23;;;3.30;99.90;;;;;;5051588;28;20226;-79
2021/01/09 07:20:08;;;;;;;22.10;11.60;;;3.50;99.90;;;;;;5044864;28;20769;-80
2021/01/09 07:22:41;;;;;;;31.98;19.50;;;3.10;99.90;;;;;;5018505;28;20294;-80
2021/01/09 07:25:09;;;;;;;33.50;18.63;;;3.10;99.90;;;;;;5032740;28;20211;-78
2021/01/09 07:27:41;;;;;;;36.70;20.45;;;3.00;99.90;;;;;;5034617;28;20253;-82
2021/01/09 07:30:15;;;;;;;37.45;20.77;;;3.10;99.90;;;;;;5027203;28;20292;-82
2021/01/09 07:32:45;;;;;;;37.22;20.92;;;3.10;99.90;;;;;;5015397;28;20676;-82
2021/01/09 07:35:12;;;;;;;39.92;21.38;;;3.10;99.90;;;;;;5014726;28;20234;-80
2021/01/09 07:37:39;;;;;;;29.33;16.20;;;3.20;99.90;;;;;;5014106;28;20228;-81
2021/01/09 07:40:13;;;;;;;28.50;14.00;;;3.10;99.90;;;;;;5015623;28;20231;-83
2021/01/09 07:42:41;;;;;;;37.67;19.77;;;3.10;99.90;;;;;;5034641;28;20824;-82
2021/01/09 07:45:11;;;;;;;41.65;22.10;;;3.10;99.90;;;;;;5029643;28;20204;-81
2021/01/09 07:47:40;;;;;;;38.17;20.30;;;3.30;99.90;;;;;;5017163;28;20278;-81
2021/01/09 07:50:12;;;;;;;39.60;21.60;;;3.20;99.90;;;;;;5025161;28;20203;-81
2021/01/09 07:52:39;;;;;;;35.00;19.17;;;3.10;99.90;;;;;;5045613;28;20203;-82
2021/01/09 07:55:08;;;;;;;37.00;18.08;;;3.20;99.90;;;;;;5027754;28;20208;-81
2021/01/09 07:57:36;;;;;;;39.58;19.85;;;2.80;99.90;;;;;;5014474;28;20228;-82
2021/01/09 08:00:22;;;;;;;32.08;17.77;;;3.00;99.90;;;;;;5027111;28;20269;-81
2021/01/09 08:02:52;;;;;;;31.63;17.27;;;3.00;99.90;;;;;;5033021;28;20215;-80
2021/01/09 08:05:20;;;;;;;37.60;19.17;;;3.10;99.90;;;;;;5030896;28;20207;-81
2021/01/09 08:07:49;;;;;;;29.75;18.80;;;3.00;99.90;;;;;;5033850;28;20250;-82
2021/01/09 08:10:21;;;;;;;34.95;18.25;;;2.90;99.90;;;;;;5027722;28;20203;-80
2021/01/09 08:12:53;;;;;;;28.48;18.20;;;2.90;99.90;;;;;;5032793;28;20211;-81
2021/01/09 08:15:19;;;;;;;19.67;10.73;;;3.00;99.90;;;;;;5021817;28;20231;-82
2021/01/09 08:17:47;;;;;;;24.08;13.60;;;2.90;99.90;;;;;;5039899;28;20686;-82
2021/01/09 08:20:15;;;;;;;31.50;18.13;;;3.00;99.90;;;;;;5037240;28;20217;-81
2021/01/09 08:22:57;;;;;;;29.90;18.65;;;3.00;99.90;;;;;;5022273;28;20572;-82
2021/01/09 08:25:25;;;;;;;25.05;10.77;;;3.00;99.90;;;;;;5027718;28;20211;-81
2021/01/09 08:27:53;;;;;;;36.00;22.20;;;2.90;99.90;;;;;;5025360;28;20231;-81
2021/01/09 08:30:22;;;;;;;34.60;21.33;;;3.00;99.90;;;;;;5012570;28;20208;-81
2021/01/09 08:32:49;;;;;;;29.20;15.73;;;3.00;99.90;;;;;;5017908;28;20208;-81
2021/01/09 08:35:17;;;;;;;34.13;19.45;;;3.10;99.90;;;;;;5036452;28;20206;-81
2021/01/09 08:37:46;;;;;;;34.75;19.63;;;2.80;99.90;;;;;;5033878;28;20231;-82
2021/01/09 08:40:18;;;;;;;32.08;18.30;;;3.00;99.90;;;;;;5032421;28;20283;-82
2021/01/09 08:42:59;;;;;;;27.98;15.52;;;3.10;99.90;;;;;;5032330;28;20203;-81
2021/01/09 08:45:47;;;;;;;42.38;23.85;;;3.00;99.90;;;;;;5035259;28;20206;-80
2021/01/09 08:48:20;;;;;;;31.05;13.02;;;3.20;99.90;;;;;;5030418;28;20721;-82
2021/01/09 08:50:57;;;;;;;34.95;19.65;;;3.10;99.90;;;;;;5013605;28;20215;-81
2021/01/09 08:53:26;;;;;;;40.30;20.52;;;3.20;99.90;;;;;;5013361;28;20265;-83
2021/01/09 08:56:00;;;;;;;38.40;19.38;;;3.10;99.90;;;;;;5016204;28;20192;-82
2021/01/09 08:58:30;;;;;;;38.17;21.08;;;3.20;99.90;;;;;;5026942;28;20254;-82
2021/01/09 09:00:58;;;;;;;40.00;22.00;;;3.10;99.90;;;;;;5039556;28;20208;-82
2021/01/09 09:03:27;;;;;;;35.50;17.50;;;3.10;99.90;;;;;;5023598;28;20204;-81
2021/01/09 09:05:54;;;;;;;33.10;18.17;;;3.60;99.90;;;;;;5015890;28;20243;-82
2021/01/09 09:08:25;;;;;;;29.15;15.15;;;3.30;99.90;;;;;;5016995;28;20273;-81
2021/01/09 09:10:52;;;;;;;34.45;19.02;;;3.40;99.90;;;;;;5030079;28;20260;-82
2021/01/09 09:13:21;;;;;;;35.50;20.02;;;3.30;99.90;;;;;;5024186;28;20204;-83
2021/01/09 09:15:50;;;;;;;26.77;14.13;;;3.30;99.90;;;;;;5016458;28;20212;-82
2021/01/09 09:18:17;;;;;;;29.67;17.98;;;3.20;99.90;;;;;;5033614;28;20330;-80
2021/01/09 09:20:49;;;;;;;37.55;19.83;;;3.10;99.90;;;;;;5030933;28;20219;-81
2021/01/09 09:23:26;;;;;;;33.13;19.50;;;3.10;99.90;;;;;;5024378;28;20208;-83
2021/01/09 09:26:10;;;;;;;36.08;19.48;;;3.20;99.90;;;;;;5018326;28;20200;-82
2021/01/09 09:28:48;;;;;;;40.13;20.67;;;3.10;99.90;;;;;;5041399;28;20211;-81
2021/01/09 09:31:19;;;;;;;34.38;19.00;;;3.30;99.90;;;;;;5030555;28;20426;-83
2021/01/09 09:34:02;;;;;;;30.10;16.08;;;3.20;99.90;;;;;;5015241;28;20215;-81
2021/01/09 09:36:31;;;;;;;30.33;17.80;;;3.30;99.90;;;;;;5023599;28;20235;-80
2021/01/09 09:38:58;;;;;;;31.67;16.70;;;3.40;99.90;;;;;;5034573;28;20223;-80
2021/01/09 09:41:25;;;;;;;32.08;18.05;;;3.30;99.90;;;;;;5017361;28;20211;-83
2021/01/09 09:43:59;;;;;;;30.92;18.98;;;3.40;99.90;;;;;;5016168;28;20229;-82
2021/01/09 09:46:27;;;;;;;35.00;19.35;;;3.30;99.90;;;;;;5020578;28;20246;-82
2021/01/09 09:49:00;;;;;;;38.05;20.45;;;3.30;99.90;;;;;;5029809;28;20204;-82
2021/01/09 09:51:35;;;;;;;25.45;14.65;;;3.20;99.90;;;;;;5039757;28;20650;-83
2021/01/09 09:54:03;;;;;;;30.80;16.95;;;3.20;99.90;;;;;;5029700;28;20595;-81
2021/01/09 09:56:37;;;;;;;36.03;19.85;;;3.30;99.90;;;;;;5026261;28;20322;-80
2021/01/09 09:59:04;;;;;;;33.25;16.90;;;3.30;99.90;;;;;;5029083;28;20756;-82
2021/01/09 10:01:31;;;;;;;34.03;17.48;;;3.20;99.90;;;;;;5019923;28;20223;-82
2021/01/09 10:04:00;;;;;;;20.02;10.82;;;3.30;99.90;;;;;;5028273;28;20195;-83
2021/01/09 10:06:41;;;;;;;31.85;18.20;;;3.40;99.90;;;;;;5038956;28;20242;-82
2021/01/09 10:09:17;;;;;;;29.15;15.77;;;3.10;99.90;;;;;;5038317;28;20207;-83
2021/01/09 10:11:45;;;;;;;30.85;17.15;;;3.40;99.90;;;;;;5042514;28;20211;-82
2021/01/09 10:14:11;;;;;;;25.50;14.77;;;3.40;99.90;;;;;;5021856;28;20203;-82
2021/01/09 10:16:38;;;;;;;12.02;5.85;;;3.50;99.90;;;;;;5039163;28;20230;-82
2021/01/09 10:19:05;;;;;;;28.42;15.88;;;3.40;99.90;;;;;;5058895;28;20227;-81
2021/01/09 10:21:33;;;;;;;28.63;14.30;;;3.30;99.90;;;;;;5034733;28;20223;-81
2021/01/09 10:24:01;;;;;;;16.85;7.35;;;3.30;99.90;;;;;;5017881;28;20729;-81
2021/01/09 10:26:29;;;;;;;26.17;13.40;;;3.30;99.90;;;;;;5018912;28;20268;-82
2021/01/09 10:28:55;;;;;;;23.55;15.40;;;3.40;99.90;;;;;;5030233;28;20199;-76
2021/01/09 10:31:32;;;;;;;22.70;14.25;;;3.30;99.90;;;;;;5012362;28;20240;-76
2021/01/09 10:33:59;;;;;;;27.15;14.43;;;3.50;99.90;;;;;;5015306;28;20810;-77
2021/01/09 10:36:27;;;;;;;26.23;14.63;;;3.50;99.90;;;;;;5031788;28;20705;-77
2021/01/09 10:38:55;;;;;;;27.17;14.70;;;3.40;99.90;;;;;;5023442;28;20325;-76
2021/01/09 10:41:22;;;;;;;26.08;15.70;;;3.50;99.90;;;;;;5029700;28;20207;-75
2021/01/09 10:43:49;;;;;;;28.27;16.10;;;3.50;99.90;;;;;;5020607;28;20617;-75
2021/01/09 10:46:20;;;;;;;27.98;14.60;;;3.30;99.90;;;;;;5017434;28;20310;-76
2021/01/09 10:48:47;;;;;;;24.75;14.25;;;3.40;99.90;;;;;;5029662;28;20196;-76
2021/01/09 10:51:15;;;;;;;24.52;16.25;;;3.50;99.90;;;;;;5020753;28;20648;-76
2021/01/09 10:53:42;;;;;;;26.65;14.60;;;3.50;99.90;;;;;;5013173;28;20204;-78
2021/01/09 10:56:08;;;;;;;23.90;14.88;;;3.20;99.90;;;;;;5030964;28;20223;-76
2021/01/09 10:58:35;;;;;;;28.15;16.23;;;3.40;99.90;;;;;;5032775;28;20338;-77
2021/01/09 11:01:02;;;;;;;25.58;16.10;;;3.40;99.90;;;;;;5029581;28;20203;-77
2021/01/09 11:03:29;;;;;;;22.42;13.88;;;3.50;99.90;;;;;;5025618;28;20208;-77
2021/01/09 11:05:55;;;;;;;22.10;12.13;;;3.40;99.90;;;;;;5029742;28;20242;-77
2021/01/09 11:08:22;;;;;;;25.13;12.50;;;3.50;99.90;;;;;;5037668;28;20211;-82
2021/01/09 11:10:49;;;;;;;21.23;11.82;;;3.10;99.90;;;;;;5047890;28;20206;-79
2021/01/09 11:13:15;;;;;;;28.83;15.68;;;3.30;99.90;;;;;;5055488;28;20236;-79
2021/01/09 11:15:46;;;;;;;23.15;12.82;;;3.50;99.90;;;;;;5055668;28;20206;-79
2021/01/09 11:18:13;;;;;;;24.50;12.35;;;3.40;99.90;;;;;;5057601;28;20270;-83
2021/01/09 11:20:40;;;;;;;22.48;13.82;;;3.40;99.90;;;;;;5045947;28;20213;-83
2021/01/09 11:23:06;;;;;;;13.73;6.82;;;3.30;99.90;;;;;;5021439;28;20207;-82
2021/01/09 11:25:33;;;;;;;24.92;13.68;;;3.50;99.90;;;;;;5022885;28;20203;-82
2021/01/09 11:28:01;;;;;;;25.88;13.70;;;3.40;99.90;;;;;;5041362;28;20669;-83
2021/01/09 11:30:28;;;;;;;25.58;14.30;;;3.40;99.90;;;;;;5042741;28;20203;-83
2021/01/09 11:32:55;;;;;;;15.95;9.10;;;3.50;99.90;;;;;;5037557;28;20661;-80
2021/01/09 11:35:22;;;;;;;21.15;12.32;;;3.40;99.90;;;;;;5035154;28;20273;-82
2021/01/09 11:37:48;;;;;;;17.80;11.10;;;3.60;99.90;;;;;;5039974;28;20218;-81
2021/01/09 11:40:15;;;;;;;20.65;11.98;;;3.50;99.90;;;;;;5020104;28;20227;-83
2021/01/09 11:42:42;;;;;;;17.17;10.55;;;3.90;99.90;;;;;;5018144;28;20555;-81
2021/01/09 11:45:10;;;;;;;16.85;9.10;;;4.00;99.90;;;;;;5034786;28;20712;-81
2021/01/09 11:47:37;;;;;;;16.90;10.23;;;3.80;99.90;;;;;;5021180;28;20219;-81
2021/01/09 11:50:05;;;;;;;17.80;11.18;;;4.00;99.90;;;;;;5019857;28;20204;-81
2021/01/09 11:52:31;;;;;;;15.32;9.93;;;3.80;99.90;;;;;;5036339;28;20203;-81
2021/01/09 11:54:58;;;;;;;18.10;10.23;;;4.20;99.90;;;;;;5038604;28;20204;-82
2021/01/09 11:57:26;;;;;;;12.88;6.63;;;4.40;99.90;;;;;;5042232;28;20308;-80
2021/01/09 11:59:53;;;;;;;13.43;5.88;;;4.60;99.90;;;;;;5037006;28;20230;-81
2021/01/09 12:02:19;;;;;;;7.43;5.28;;;4.40;99.90;;;;;;5032112;28;20200;-82
2021/01/09 12:04:46;;;;;;;9.55;5.30;;;3.80;99.90;;;;;;5017641;28;20230;-80
2021/01/09 12:07:13;;;;;;;13.43;8.30;;;3.80;99.90;;;;;;5034649;28;20230;-82
2021/01/09 12:09:40;;;;;;;16.83;9.60;;;3.80;99.90;;;;;;5044280;28;20222;-81
2021/01/09 12:12:07;;;;;;;10.68;6.90;;;3.80;99.90;;;;;;5033127;28;20295;-79
2021/01/09 12:14:33;;;;;;;13.05;7.95;;;3.90;99.90;;;;;;5013065;28;20211;-80
2021/01/09 12:17:00;;;;;;;10.45;5.30;;;4.00;99.90;;;;;;5036306;28;20610;-81
2021/01/09 12:19:27;;;;;;;12.77;7.80;;;3.90;99.90;;;;;;5042036;28;20245;-80
2021/01/09 12:21:54;;;;;;;11.52;6.68;;;4.00;99.90;;;;;;5037792;28;20207;-81
2021/01/09 12:24:22;;;;;;;13.80;7.75;;;3.90;99.90;;;;;;5037775;28;20211;-82
2021/01/09 12:26:51;;;;;;;14.25;8.80;;;3.80;99.90;;;;;;5036195;28;20555;-81
2021/01/09 12:29:18;;;;;;;13.48;7.65;;;3.70;99.90;;;;;;5044882;28;20270;-80
2021/01/09 12:31:45;;;;;;;13.88;7.70;;;3.60;99.90;;;;;;5045936;28;20638;-82
2021/01/09 12:34:12;;;;;;;15.75;9.98;;;3.80;99.90;;;;;;5030655;28;20290;-81
2021/01/09 12:36:39;;;;;;;9.75;5.57;;;3.50;99.90;;;;;;5047514;28;20285;-79
2021/01/09 12:39:06;;;;;;;16.80;9.05;;;3.80;99.90;;;;;;5026428;28;20729;-82
2021/01/09 12:41:35;;;;;;;13.80;7.03;;;3.70;99.90;;;;;;5028873;28;20261;-79
2021/01/09 12:44:02;;;;;;;13.48;8.57;;;3.70;99.90;;;;;;5031060;28;20270;-81